Terminal Aerodrome Forecast
Issued by NWS La Crosse, WI

Home | Current Version | Previous Version | Text Only | Print | Product List | Glossary On
Versions: 1 2 3 4 5 6 7 8 9 10 11 12 13 14 15 16 17 18 19 20 21 22 23 24 25 26 27 28
000
FTUS43 KARX 260645 AAA
TAFLSE
TAF AMD
KLSE 260645Z 2607/2706 15007KT 5SM -DZ BR OVC012
      TEMPO 2607/2608 OVC008
     FM260800 VRB03KT 3SM BR OVC010
      TEMPO 2608/2610 BKN007
     FM261300 29006KT P6SM BKN150
     FM270200 VRB03KT P6SM SCT150=

USA.gov is the U.S. government's official web portal to all federal, state and local government web resources and services.